Allegre, Kentucky
Current Conditions -  °F | °C
As of 1:42 PM on Friday 31 Oct 2014 (Local Time) from KHOP Reporting Station
Drizzle Drizzle  
Wind Chill: 35°   Ceiling: 3200
Heat Index: 41°   Visibility: 7mi
Dew Point: 36°   Wind: 10mph
Humidity: 81%   Direction: 340°NNW
Pressure: 30.09"   Gusts: 33mph
Location:  36.93°N, 87.22°W
Report Text: KHOP 311842Z 34009G29KT 7SM -DZ SCT016 SCT024 OVC032 05/02 A3009 RMK AO2A DZE1839
Loading
Personal Weather Stations






























Interactive Weather Map
Tropical Storm Tracking
New forecast layout! Learn more

10-Day Weather Forecast

Advertisements
Track Severe Weather on mobile